Terminal Aerodrome Forecast
Issued by NWS Boston, MA

Home | Current Version | Previous Version | Text Only | Print | Product List | Glossary On
Versions: 1 2 3 4 5 6 7 8 9 10 11 12 13 14 15 16 17 18 19 20 21 22 23 24 25 26 27 28 29 30 31 32 33 34 35 36 37 38 39 40 41 42 43 44
638
FTUS41 KBOX 310105 AAA
TAFBDL
TAF AMD
KBDL 310105Z 3101/0106 25004KT P6SM -RA FEW024 BKN120 OVC180
     FM310600 00000KT P6SM VCSH OVC025
     FM310800 00000KT 5SM BR VCSH OVC015
     FM311200 VRB03KT 3SM -SHRA BR OVC015
     FM312000 10006KT P6SM VCSH OVC050
     FM010300 09005KT 3SM BR VCSH OVC008=

USA.gov is the U.S. government's official web portal to all federal, state and local government web resources and services.